Time;durP1;ratioP1;P1;durP2;ratioP2;P2;SDS_P1;SDS_P2;PMS_P1;PMS_P2;Temp;Humidity;BMP_temperature;BMP_pressure;BME280_temperature;BME280_humidity;BME280_pressure;Samples;Min_cycle;Max_cycle;Signal;HPM_P1;HPM_P2
2022/04/19 00:00:31;;;;;;;4.55;1.77;;;9.90;93.40;;;;;;6747909;88;20741;-80
2022/04/19 00:10:32;;;;;;;3.70;1.80;;;9.90;95.10;;;;;;6743634;88;20225;-79
2022/04/19 00:20:33;;;;;;;3.45;1.90;;;9.70;96.10;;;;;;6747725;88;21042;-79
2022/04/19 00:30:34;;;;;;;3.62;1.87;;;9.90;97.10;;;;;;6743027;88;20208;-79
2022/04/19 00:40:34;;;;;;;5.78;1.73;;;9.80;97.60;;;;;;6743463;88;20200;-80
2022/04/19 00:50:35;;;;;;;3.28;1.73;;;9.70;99.10;;;;;;6746998;88;20367;-79
2022/04/19 01:00:35;;;;;;;3.80;2.00;;;9.60;99.90;;;;;;6749100;88;20181;-79
2022/04/19 01:10:37;;;;;;;3.78;1.77;;;9.20;99.90;;;;;;6743277;88;20188;-79
2022/04/19 01:20:38;;;;;;;4.28;1.80;;;9.00;99.90;;;;;;6746149;88;20204;-79
2022/04/19 01:30:43;;;;;;;3.35;1.77;;;8.60;99.90;;;;;;6747971;88;20735;-79
2022/04/19 01:40:43;;;;;;;3.28;1.77;;;8.60;99.90;;;;;;6748219;88;20188;-79
2022/04/19 01:50:45;;;;;;;3.67;1.60;;;8.30;99.90;;;;;;6747560;88;20219;-79
2022/04/19 02:10:49;;;;;;;3.55;1.67;;;8.20;99.90;;;;;;6722584;88;20739;-78
2022/04/19 02:20:50;;;;;;;3.30;1.77;;;8.00;99.90;;;;;;6722352;88;20256;-78
2022/04/19 02:30:50;;;;;;;5.03;1.85;;;8.10;99.90;;;;;;6724855;88;20189;-77
2022/04/19 02:40:51;;;;;;;5.22;2.10;;;8.10;99.90;;;;;;6725945;88;20278;-78
2022/04/19 02:50:52;;;;;;;3.50;1.73;;;7.90;99.90;;;;;;6726160;88;20188;-78
2022/04/19 03:00:52;;;;;;;5.97;1.67;;;7.90;99.90;;;;;;6724684;88;20197;-77
2022/04/19 03:10:53;;;;;;;3.97;1.60;;;7.80;99.90;;;;;;6725219;88;20197;-78
2022/04/19 03:20:54;;;;;;;4.20;1.77;;;7.70;99.90;;;;;;6736294;88;20610;-79
2022/04/19 03:30:54;;;;;;;4.60;1.62;;;7.30;99.90;;;;;;6722173;88;20213;-77
2022/04/19 03:40:56;;;;;;;2.80;1.55;;;7.50;99.90;;;;;;6721054;88;20263;-77
2022/04/19 03:50:57;;;;;;;3.87;1.60;;;7.50;99.90;;;;;;6724135;88;20221;-78
2022/04/19 04:00:59;;;;;;;2.47;1.48;;;7.10;99.90;;;;;;6724894;88;20173;-77
2022/04/19 04:10:59;;;;;;;3.67;1.60;;;6.90;99.90;;;;;;6734386;88;20221;-77
2022/04/19 04:21:00;;;;;;;2.37;1.35;;;7.00;99.90;;;;;;6731999;88;20203;-78
2022/04/19 04:31:00;;;;;;;4.10;1.65;;;6.90;99.90;;;;;;6729866;88;20251;-79
2022/04/19 04:41:01;;;;;;;5.22;1.95;;;6.80;99.90;;;;;;6727178;88;20354;-78
2022/04/19 04:51:02;;;;;;;3.50;1.90;;;6.90;99.90;;;;;;6723423;88;20204;-77
2022/04/19 05:01:02;;;;;;;5.05;2.28;;;6.90;99.90;;;;;;6724302;88;20188;-77
2022/04/19 05:11:03;;;;;;;3.10;1.80;;;6.70;99.90;;;;;;6725134;88;20208;-78
2022/04/19 05:21:07;;;;;;;3.47;1.85;;;6.60;99.90;;;;;;6720791;88;20200;-79
2022/04/19 05:31:08;;;;;;;3.00;1.65;;;6.50;99.90;;;;;;6723606;88;20331;-77
2022/04/19 05:41:09;;;;;;;4.25;2.00;;;6.50;99.90;;;;;;6723190;88;20189;-78
2022/04/19 05:51:11;;;;;;;4.47;1.87;;;7.00;99.90;;;;;;6724874;88;20242;-77
2022/04/19 06:01:11;;;;;;;3.62;1.90;;;7.20;99.90;;;;;;6723554;88;20344;-77
2022/04/19 06:11:12;;;;;;;6.45;2.10;;;7.80;99.90;;;;;;6722421;88;20263;-77
2022/04/19 06:21:12;;;;;;;4.40;2.10;;;8.00;99.90;;;;;;6724626;88;20202;-77
2022/04/19 06:31:13;;;;;;;3.78;2.15;;;8.60;99.90;;;;;;6726683;88;20216;-78
2022/04/19 06:41:14;;;;;;;3.85;2.05;;;9.10;99.90;;;;;;6728646;88;20261;-76
2022/04/19 06:51:14;;;;;;;7.65;2.10;;;9.40;99.90;;;;;;6726248;88;20193;-78
2022/04/19 07:01:15;;;;;;;4.75;2.20;;;9.90;99.90;;;;;;6727660;88;20664;-78
2022/04/19 07:11:16;;;;;;;4.70;2.00;;;10.40;99.90;;;;;;6731646;88;20237;-79
2022/04/19 07:31:36;;;;;;;4.85;2.60;;;11.70;99.90;;;;;;6728991;88;20189;-78
2022/04/19 07:41:38;;;;;;;4.43;2.70;;;11.60;99.90;;;;;;6728660;88;20185;-78
2022/04/19 07:51:38;;;;;;;5.45;2.50;;;11.90;99.90;;;;;;6728379;88;20215;-79
2022/04/19 08:11:42;;;;;;;5.28;2.85;;;14.20;97.70;;;;;;6761358;88;20228;-78
2022/04/19 08:21:43;;;;;;;5.35;2.55;;;14.40;96.80;;;;;;6758621;88;20224;-81
2022/04/19 08:31:43;;;;;;;5.47;2.87;;;15.40;94.40;;;;;;6758337;88;20203;-82
2022/04/19 08:41:45;;;;;;;6.43;2.97;;;16.10;92.10;;;;;;6760471;88;20210;-82
2022/04/19 08:51:46;;;;;;;5.25;2.60;;;16.60;90.20;;;;;;6759994;88;20223;-81
2022/04/19 09:01:51;;;;;;;5.37;2.40;;;16.80;83.80;;;;;;6754258;88;20263;-81
2022/04/19 09:11:53;;;;;;;4.32;2.28;;;17.60;79.10;;;;;;6758335;88;20179;-81
2022/04/19 09:21:54;;;;;;;3.80;2.28;;;18.80;78.10;;;;;;6758367;88;20184;-81
2022/04/19 09:31:58;;;;;;;5.53;2.35;;;19.30;75.00;;;;;;6754329;88;20218;-83
2022/04/19 09:42:01;;;;;;;4.25;2.37;;;20.00;72.20;;;;;;6757100;87;20211;-81
2022/04/19 09:52:02;;;;;;;4.65;2.58;;;20.20;73.40;;;;;;6736495;88;20225;-81
2022/04/19 10:12:23;;;;;;;6.87;2.33;;;21.10;70.10;;;;;;6763285;88;20532;-82
2022/04/19 10:22:26;;;;;;;4.43;2.50;;;22.10;67.90;;;;;;6758250;88;20243;-82
2022/04/19 10:32:33;;;;;;;5.50;2.55;;;22.50;65.50;;;;;;6757988;88;20304;-82
2022/04/19 10:42:38;;;;;;;5.80;2.80;;;22.50;65.10;;;;;;6756576;88;20581;-81
2022/04/19 10:52:39;;;;;;;4.37;2.55;;;23.50;60.70;;;;;;6759700;88;20181;-81
2022/04/19 11:02:39;;;;;;;3.53;2.40;;;23.00;61.30;;;;;;6760645;88;20204;-81
2022/04/19 11:12:58;;;;;;;4.35;2.45;;;23.90;59.20;;;;;;6754346;88;21058;-82
2022/04/19 11:23:17;;;;;;;5.35;2.33;;;24.20;58.20;;;;;;6741914;88;20313;-82
2022/04/19 11:33:22;;;;;;;4.25;2.70;;;25.60;56.80;;;;;;6737560;88;20365;-82
2022/04/19 11:53:43;;;;;;;3.53;2.20;;;25.10;54.50;;;;;;6743811;88;20208;-81
2022/04/19 12:03:43;;;;;;;3.53;2.30;;;25.60;53.90;;;;;;6742192;88;20185;-82
2022/04/19 12:13:49;;;;;;;4.25;2.28;;;26.30;51.40;;;;;;6742363;88;20221;-82
2022/04/19 12:23:53;;;;;;;4.80;2.70;;;25.40;53.00;;;;;;6743065;88;20193;-81
2022/04/19 12:33:54;;;;;;;3.95;2.58;;;24.20;53.60;;;;;;6742851;88;20200;-82
2022/04/19 12:44:01;;;;;;;5.12;2.80;;;25.40;52.90;;;;;;6721644;88;20215;-82
2022/04/19 12:54:04;;;;;;;4.07;2.80;;;26.50;51.40;;;;;;6718245;88;20351;-81
2022/04/19 13:04:04;;;;;;;3.23;2.23;;;26.40;50.10;;;;;;6722411;88;20193;-83
2022/04/19 13:14:05;;;;;;;4.60;2.42;;;26.80;50.80;;;;;;6738499;88;20206;-82
2022/04/19 13:24:06;;;;;;;3.53;2.40;;;26.90;51.10;;;;;;6742638;88;20199;-81
2022/04/19 13:34:07;;;;;;;5.65;2.87;;;26.50;48.80;;;;;;6736400;88;20231;-82
2022/04/19 13:44:12;;;;;;;3.13;2.27;;;26.60;49.60;;;;;;6740165;88;20226;-81
2022/04/19 13:54:14;;;;;;;5.43;2.47;;;26.60;49.40;;;;;;6739080;88;20220;-82
2022/04/19 14:04:14;;;;;;;3.43;2.20;;;25.70;50.30;;;;;;6737655;88;20694;-81
2022/04/19 14:14:15;;;;;;;3.50;2.40;;;26.60;49.30;;;;;;6738867;88;20209;-81
2022/04/19 14:24:16;;;;;;;5.07;2.30;;;26.90;49.00;;;;;;6736032;88;20246;-83
2022/04/19 14:34:16;;;;;;;4.32;2.15;;;25.80;48.40;;;;;;6739636;88;20215;-80
2022/04/19 14:44:17;;;;;;;2.12;1.73;;;25.80;48.90;;;;;;6742685;88;20201;-80
2022/04/19 14:54:17;;;;;;;2.70;1.58;;;25.90;48.50;;;;;;6742153;88;20193;-80
2022/04/19 15:04:18;;;;;;;2.80;1.57;;;25.70;47.40;;;;;;6740795;88;20289;-81
2022/04/19 15:14:19;;;;;;;2.25;1.35;;;26.10;48.10;;;;;;6735991;88;20222;-80
2022/04/19 15:24:22;;;;;;;5.28;1.55;;;25.30;49.00;;;;;;6736626;88;20252;-82
2022/04/19 15:34:22;;;;;;;2.43;1.30;;;25.70;48.50;;;;;;6737042;88;20188;-81
2022/04/19 15:44:24;;;;;;;1.60;1.13;;;25.40;48.70;;;;;;6740486;88;20228;-81
2022/04/19 15:54:25;;;;;;;3.62;1.30;;;25.20;48.90;;;;;;6704009;88;20596;-81
2022/04/19 16:04:25;;;;;;;3.35;1.62;;;25.20;50.20;;;;;;6705498;88;20238;-81
2022/04/19 16:14:26;;;;;;;3.30;1.50;;;24.60;52.00;;;;;;6715245;88;20336;-81
2022/04/19 16:24:26;;;;;;;6.18;1.48;;;24.00;52.80;;;;;;6738271;88;20400;-80
2022/04/19 16:34:27;;;;;;;4.23;1.30;;;23.60;53.60;;;;;;6735160;88;20193;-80
2022/04/19 16:44:28;;;;;;;3.00;1.15;;;23.50;54.60;;;;;;6740494;88;20246;-80
2022/04/19 16:54:29;;;;;;;5.30;1.10;;;23.20;53.80;;;;;;6739042;88;20201;-80
2022/04/19 17:04:30;;;;;;;2.10;1.10;;;22.60;56.00;;;;;;6734428;88;20214;-81
2022/04/19 17:14:31;;;;;;;2.20;1.20;;;21.80;56.90;;;;;;6734764;88;20209;-80
2022/04/19 17:24:32;;;;;;;2.65;0.90;;;21.20;57.60;;;;;;6735323;88;20507;-80
2022/04/19 17:34:33;;;;;;;2.65;0.90;;;21.00;58.20;;;;;;6735307;88;20193;-81
2022/04/19 17:44:42;;;;;;;2.95;1.12;;;20.40;58.80;;;;;;6741883;88;20224;-81
2022/04/19 18:05:07;;;;;;;2.15;0.85;;;19.60;60.40;;;;;;6736895;88;20277;-81
2022/04/19 18:15:13;;;;;;;1.60;0.93;;;19.20;61.20;;;;;;6737103;88;20197;-81
2022/04/19 18:25:14;;;;;;;1.70;0.62;;;18.80;61.10;;;;;;6740140;88;20694;-81
2022/04/19 18:35:16;;;;;;;1.92;0.80;;;18.40;61.30;;;;;;6702117;89;20690;-81
2022/04/19 18:45:20;;;;;;;3.33;0.82;;;18.20;61.80;;;;;;6705904;89;20382;-81
2022/04/19 18:55:21;;;;;;;3.33;1.00;;;17.70;62.10;;;;;;6732354;88;20196;-80
2022/04/19 19:05:22;;;;;;;2.65;0.90;;;17.40;62.00;;;;;;6716552;88;20569;-81
2022/04/19 19:15:23;;;;;;;1.10;0.70;;;17.10;62.60;;;;;;6717917;88;20210;-80
2022/04/19 19:25:31;;;;;;;3.53;0.85;;;16.50;63.00;;;;;;6727846;88;20853;-81
2022/04/19 19:35:32;;;;;;;3.15;0.50;;;16.60;62.80;;;;;;6740279;88;20206;-82
2022/04/19 19:45:33;;;;;;;1.60;0.57;;;16.20;62.00;;;;;;6743140;88;20180;-81
2022/04/19 19:55:34;;;;;;;1.50;0.50;;;16.10;60.90;;;;;;6741461;88;20853;-80
2022/04/19 20:06:15;;;;;;;2.42;0.50;;;16.00;60.30;;;;;;6747927;77;20227;-79
2022/04/19 20:16:16;;;;;;;3.25;0.60;;;15.80;60.60;;;;;;6777476;87;20211;-79
2022/04/19 20:26:17;;;;;;;1.70;0.70;;;15.60;60.60;;;;;;6776966;87;20252;-79
2022/04/19 20:36:17;;;;;;;1.45;0.82;;;15.50;61.70;;;;;;6777578;87;20769;-79
2022/04/19 20:46:22;;;;;;;2.95;0.90;;;15.00;62.30;;;;;;6777343;87;20231;-78
2022/04/19 20:56:23;;;;;;;1.93;1.00;;;15.00;61.90;;;;;;6778896;87;20287;-79
2022/04/19 21:06:23;;;;;;;1.90;1.00;;;14.90;62.40;;;;;;6761520;87;20877;-77
2022/04/19 21:16:24;;;;;;;2.30;0.93;;;14.60;63.20;;;;;;6722973;88;20227;-79
2022/04/19 21:26:24;;;;;;;1.65;0.88;;;14.40;62.90;;;;;;6707179;88;20246;-79
2022/04/19 21:36:25;;;;;;;3.60;1.00;;;14.30;63.50;;;;;;6706609;88;20226;-79
2022/04/19 21:46:26;;;;;;;2.62;1.17;;;14.20;64.30;;;;;;6705883;88;20784;-80
2022/04/19 21:56:27;;;;;;;3.00;1.05;;;14.10;64.90;;;;;;6706333;87;20224;-79
2022/04/19 22:06:27;;;;;;;1.27;0.80;;;13.80;65.50;;;;;;6709000;87;20293;-80
2022/04/19 22:16:34;;;;;;;2.67;1.10;;;13.60;66.50;;;;;;6762385;87;20195;-79
2022/04/19 22:26:35;;;;;;;2.30;0.80;;;13.40;66.30;;;;;;6763263;87;20186;-79
2022/04/19 22:36:35;;;;;;;3.28;1.12;;;13.30;65.90;;;;;;6775584;87;20220;-79
2022/04/19 22:46:36;;;;;;;3.47;1.10;;;13.10;66.10;;;;;;6775476;87;20191;-79
2022/04/19 22:56:36;;;;;;;1.65;1.00;;;12.90;65.70;;;;;;6778764;87;20211;-79
2022/04/19 23:06:37;;;;;;;2.42;1.10;;;12.80;65.40;;;;;;6778602;87;20320;-80
2022/04/19 23:16:37;;;;;;;1.92;1.00;;;12.80;65.30;;;;;;6779384;87;20192;-79
2022/04/19 23:36:57;;;;;;;2.90;1.48;;;12.50;66.50;;;;;;6779667;87;20249;-79
2022/04/19 23:46:57;;;;;;;3.45;1.30;;;12.50;66.20;;;;;;6779253;87;20328;-78
2022/04/19 23:56:58;;;;;;;2.37;1.30;;;12.40;66.50;;;;;;6778702;87;20612;-79
